Time;durP1;ratioP1;P1;durP2;ratioP2;P2;SDS_P1;SDS_P2;PMS_P1;PMS_P2;Temp;Humidity;BMP_temperature;BMP_pressure;BME280_temperature;BME280_humidity;BME280_pressure;Samples;Min_cycle;Max_cycle;Signal;HPM_P1;HPM_P2
2023/04/19 00:00:40;;;;;;;11.85;10.13;;;;;;;;;;5053448;28;20690;-68
2023/04/19 00:03:07;;;;;;;16.50;10.40;;;;;;;;;;5051900;28;20057;-68
2023/04/19 00:05:32;;;;;;;12.68;10.13;;;;;;;;;;5046933;28;20044;-68
2023/04/19 00:07:58;;;;;;;13.90;10.57;;;;;;;;;;5048110;28;20534;-68
2023/04/19 00:10:24;;;;;;;12.10;10.25;;;;;;;;;;5047153;28;20428;-68
2023/04/19 00:12:50;;;;;;;14.07;9.52;;;;;;;;;;5045283;28;20037;-69
2023/04/19 00:15:16;;;;;;;14.15;10.70;;;;;;;;;;5043064;28;20027;-68
2023/04/19 00:17:42;;;;;;;11.48;10.27;;;;;;;;;;5050002;28;20037;-68
2023/04/19 00:20:09;;;;;;;15.15;10.85;;;;;;;;;;5035058;28;20043;-68
2023/04/19 00:22:34;;;;;;;13.40;10.43;;;;;;;;;;5046485;28;20036;-68
2023/04/19 00:25:00;;;;;;;13.27;10.32;;;;;;;;;;5045048;28;20037;-68
2023/04/19 00:27:26;;;;;;;12.38;9.77;;;;;;;;;;5046701;28;20404;-68
2023/04/19 00:29:52;;;;;;;13.75;10.05;;;;;;;;;;5046958;28;20040;-68
2023/04/19 00:32:17;;;;;;;14.27;10.65;;;;;;;;;;5045312;28;20029;-68
2023/04/19 00:34:43;;;;;;;12.05;10.15;;;;;;;;;;5024974;28;20594;-68
2023/04/19 00:37:09;;;;;;;14.82;10.18;;;;;;;;;;5048873;28;20032;-68
2023/04/19 00:39:35;;;;;;;13.73;10.63;;;;;;;;;;5026071;28;20039;-68
2023/04/19 00:42:03;;;;;;;13.80;11.23;;;;;;;;;;5028572;28;20600;-68
2023/04/19 00:44:32;;;;;;;12.55;10.18;;;;;;;;;;5028685;28;20040;-68
2023/04/19 00:46:59;;;;;;;13.20;10.13;;;;;;;;;;5051288;28;20024;-68
2023/04/19 00:49:24;;;;;;;12.45;10.27;;;;;;;;;;5027403;28;20041;-68
2023/04/19 00:51:50;;;;;;;13.85;11.05;;;;;;;;;;5028472;28;20570;-68
2023/04/19 00:54:17;;;;;;;13.05;10.70;;;;;;;;;;5026949;28;20041;-68
2023/04/19 00:56:44;;;;;;;13.98;11.00;;;;;;;;;;5022608;28;20055;-68
2023/04/19 00:59:10;;;;;;;12.68;10.43;;;;;;;;;;5029333;28;20043;-68
2023/04/19 01:01:37;;;;;;;14.32;11.02;;;;;;;;;;5029660;28;20033;-68
2023/04/19 01:04:03;;;;;;;14.95;10.38;;;;;;;;;;5042370;28;20044;-68
2023/04/19 01:06:30;;;;;;;14.07;10.43;;;;;;;;;;5043902;28;20033;-68
2023/04/19 01:08:56;;;;;;;12.27;10.30;;;;;;;;;;5037648;28;20489;-68
2023/04/19 01:11:23;;;;;;;14.18;10.38;;;;;;;;;;5051644;28;20036;-68
2023/04/19 01:13:48;;;;;;;13.95;10.85;;;;;;;;;;5026511;28;20072;-68
2023/04/19 01:16:16;;;;;;;14.50;11.25;;;;;;;;;;5045481;28;20051;-68
2023/04/19 01:18:42;;;;;;;14.00;11.10;;;;;;;;;;5046034;28;20033;-68
2023/04/19 01:21:08;;;;;;;13.98;10.88;;;;;;;;;;5029667;28;20037;-68
2023/04/19 01:23:35;;;;;;;14.48;11.50;;;;;;;;;;5028442;28;20025;-68
2023/04/19 01:26:01;;;;;;;15.13;10.25;;;;;;;;;;5027981;28;20029;-69
2023/04/19 01:28:27;;;;;;;15.00;11.60;;;;;;;;;;5053406;28;20132;-68
2023/04/19 01:30:53;;;;;;;15.60;10.63;;;;;;;;;;5048390;28;20124;-68
2023/04/19 01:33:20;;;;;;;13.60;10.50;;;;;;;;;;5049447;28;20155;-68
2023/04/19 01:35:46;;;;;;;12.88;10.43;;;;;;;;;;5051690;28;20036;-68
2023/04/19 01:38:13;;;;;;;15.07;10.85;;;;;;;;;;5048415;28;20406;-68
2023/04/19 01:40:40;;;;;;;14.50;11.43;;;;;;;;;;5046232;28;20037;-68
2023/04/19 01:43:06;;;;;;;14.05;10.70;;;;;;;;;;5031353;28;20090;-68
2023/04/19 01:45:32;;;;;;;13.55;11.13;;;;;;;;;;5050631;28;20029;-68
2023/04/19 01:48:01;;;;;;;14.40;10.82;;;;;;;;;;5050329;28;20090;-67
2023/04/19 01:50:27;;;;;;;15.43;11.70;;;;;;;;;;5048266;28;20718;-68
2023/04/19 01:52:54;;;;;;;14.63;11.35;;;;;;;;;;5034087;28;20481;-68
2023/04/19 01:55:19;;;;;;;14.88;10.70;;;;;;;;;;5032000;28;20064;-68
2023/04/19 01:57:45;;;;;;;14.57;11.50;;;;;;;;;;5052760;28;20029;-68
2023/04/19 02:00:11;;;;;;;15.23;11.43;;;;;;;;;;5033477;28;20036;-68
2023/04/19 02:02:42;;;;;;;16.40;11.60;;;;;;;;;;5049358;28;20044;-68
2023/04/19 02:05:09;;;;;;;13.85;11.23;;;;;;;;;;5015014;28;20032;-68
2023/04/19 02:07:34;;;;;;;16.65;11.00;;;;;;;;;;5045552;28;20044;-68
2023/04/19 02:10:00;;;;;;;15.20;11.52;;;;;;;;;;5050260;28;20051;-68
2023/04/19 02:12:29;;;;;;;16.50;11.80;;;;;;;;;;5031967;28;20029;-68
2023/04/19 02:14:56;;;;;;;15.05;11.50;;;;;;;;;;5047657;28;20749;-68
2023/04/19 02:17:29;;;;;;;14.98;11.43;;;;;;;;;;5050853;28;20048;-68
2023/04/19 02:19:56;;;;;;;17.85;11.32;;;;;;;;;;5031059;28;20032;-69
2023/04/19 02:22:22;;;;;;;14.15;11.45;;;;;;;;;;5025385;28;20048;-68
2023/04/19 02:24:49;;;;;;;18.20;11.43;;;;;;;;;;5030931;28;20481;-68
2023/04/19 02:27:15;;;;;;;18.02;11.63;;;;;;;;;;5034596;28;20035;-68
2023/04/19 02:29:40;;;;;;;14.63;11.25;;;;;;;;;;5051769;28;20036;-68
2023/04/19 02:32:06;;;;;;;14.68;11.75;;;;;;;;;;5026451;28;20059;-68
2023/04/19 02:34:33;;;;;;;19.92;12.27;;;;;;;;;;5030248;28;20037;-68
2023/04/19 02:36:59;;;;;;;15.30;11.73;;;;;;;;;;5050753;28;20037;-68
2023/04/19 02:39:27;;;;;;;14.60;12.02;;;;;;;;;;5043112;28;20033;-68
2023/04/19 02:41:54;;;;;;;16.27;11.70;;;;;;;;;;5044547;28;20111;-68
2023/04/19 02:44:20;;;;;;;15.15;11.13;;;;;;;;;;5045760;28;20511;-68
2023/04/19 02:46:52;;;;;;;14.60;11.18;;;;;;;;;;5039754;28;20033;-68
2023/04/19 02:49:18;;;;;;;16.55;11.65;;;;;;;;;;5048141;28;20064;-68
2023/04/19 02:51:44;;;;;;;15.43;11.13;;;;;;;;;;5023559;28;20033;-68
2023/04/19 02:54:11;;;;;;;14.50;11.52;;;;;;;;;;5035999;28;20102;-68
2023/04/19 02:56:39;;;;;;;20.33;13.50;;;;;;;;;;5031932;28;20040;-68
2023/04/19 02:59:08;;;;;;;16.17;10.93;;;;;;;;;;5027707;28;20041;-68
2023/04/19 03:01:34;;;;;;;16.45;11.98;;;;;;;;;;5030980;28;20037;-68
2023/04/19 03:04:03;;;;;;;20.52;12.82;;;;;;;;;;5033934;28;20044;-69
2023/04/19 03:06:31;;;;;;;15.55;11.70;;;;;;;;;;5027889;28;20109;-68
2023/04/19 03:08:56;;;;;;;16.92;12.48;;;;;;;;;;5029851;28;20116;-69
2023/04/19 03:11:22;;;;;;;15.18;12.02;;;;;;;;;;5033238;28;20506;-68
2023/04/19 03:13:48;;;;;;;16.38;12.32;;;;;;;;;;5030070;28;20059;-68
2023/04/19 03:16:13;;;;;;;17.23;12.52;;;;;;;;;;5028902;28;20032;-68
2023/04/19 03:18:41;;;;;;;16.33;11.82;;;;;;;;;;5025284;28;20029;-68
2023/04/19 03:21:08;;;;;;;18.85;12.95;;;;;;;;;;5029245;28;20602;-68
2023/04/19 03:23:47;;;;;;;17.88;12.85;;;;;;;;;;5028197;28;20064;-68
2023/04/19 03:26:13;;;;;;;21.58;12.93;;;;;;;;;;5029420;28;20056;-68
2023/04/19 03:28:45;;;;;;;17.65;13.10;;;;;;;;;;5026201;28;20041;-68
2023/04/19 03:31:34;;;;;;;;;;;;;;;;;;5027528;28;20100;-68
2023/04/19 03:34:00;;;;;;;17.95;12.85;;;;;;;;;;5047387;28;20011;-68
2023/04/19 03:36:31;;;;;;;16.40;12.32;;;;;;;;;;5025104;28;20043;-68
2023/04/19 03:38:57;;;;;;;19.17;13.82;;;;;;;;;;5028223;28;20590;-68
2023/04/19 03:41:25;;;;;;;17.77;13.23;;;;;;;;;;5048013;28;20136;-68
2023/04/19 03:44:09;;;;;;;18.33;12.93;;;;;;;;;;5051783;28;20522;-68
2023/04/19 03:46:36;;;;;;;17.30;12.18;;;;;;;;;;5026862;28;20029;-68
2023/04/19 03:49:02;;;;;;;17.67;13.02;;;;;;;;;;5028141;28;20037;-68
2023/04/19 03:51:29;;;;;;;15.70;13.00;;;;;;;;;;5030201;28;20041;-68
2023/04/19 03:53:54;;;;;;;21.33;12.90;;;;;;;;;;5036627;28;20086;-68
2023/04/19 03:56:20;;;;;;;18.33;13.43;;;;;;;;;;5026427;28;20159;-68
2023/04/19 03:58:50;;;;;;;17.50;13.43;;;;;;;;;;5028652;28;20033;-68
2023/04/19 04:01:20;;;;;;;18.85;14.55;;;;;;;;;;5027177;28;20048;-68
2023/04/19 04:03:46;;;;;;;22.83;15.25;;;;;;;;;;5028794;28;20063;-68
2023/04/19 04:06:11;;;;;;;21.13;14.32;;;;;;;;;;5042721;28;20060;-68
2023/04/19 04:08:37;;;;;;;22.73;15.68;;;;;;;;;;5024984;28;20045;-68
2023/04/19 04:11:03;;;;;;;24.13;14.93;;;;;;;;;;5025024;28;20052;-68
2023/04/19 04:13:29;;;;;;;24.60;16.02;;;;;;;;;;5024206;28;20124;-67
2023/04/19 04:16:10;;;;;;;20.23;14.70;;;;;;;;;;5025204;28;20036;-68
2023/04/19 04:18:36;;;;;;;22.05;15.05;;;;;;;;;;5030972;28;20385;-68
2023/04/19 04:21:04;;;;;;;21.73;15.32;;;;;;;;;;5043576;28;20756;-67
2023/04/19 04:23:32;;;;;;;22.50;15.05;;;;;;;;;;5024854;28;20040;-68
2023/04/19 04:25:59;;;;;;;21.92;16.13;;;;;;;;;;5035900;28;20534;-67
2023/04/19 04:28:32;;;;;;;23.90;15.55;;;;;;;;;;5051773;28;20039;-68
2023/04/19 04:30:59;;;;;;;25.55;16.67;;;;;;;;;;5044883;28;20031;-68
2023/04/19 04:33:28;;;;;;;24.73;15.70;;;;;;;;;;5030544;28;20115;-68
2023/04/19 04:35:56;;;;;;;26.33;16.30;;;;;;;;;;5026927;28;20043;-68
2023/04/19 04:38:24;;;;;;;24.98;15.57;;;;;;;;;;5029634;28;20169;-68
2023/04/19 04:40:54;;;;;;;22.40;16.02;;;;;;;;;;5025871;28;20131;-68
2023/04/19 04:43:21;;;;;;;21.60;15.60;;;;;;;;;;5040594;28;20041;-67
2023/04/19 04:45:47;;;;;;;23.50;15.68;;;;;;;;;;5027510;28;20044;-68
2023/04/19 04:48:14;;;;;;;27.48;16.45;;;;;;;;;;5024581;28;20021;-68
2023/04/19 04:50:39;;;;;;;24.80;16.13;;;;;;;;;;5041437;28;20039;-68
2023/04/19 04:53:05;;;;;;;26.50;17.42;;;;;;;;;;5046005;28;20120;-70
2023/04/19 04:55:33;;;;;;;24.15;15.43;;;;;;;;;;5034916;28;20086;-67
2023/04/19 04:57:59;;;;;;;22.95;17.23;;;;;;;;;;5026403;28;20041;-68
2023/04/19 05:00:37;;;;;;;23.58;16.38;;;;;;;;;;5027993;28;20025;-67
2023/04/19 05:03:05;;;;;;;26.63;15.85;;;;;;;;;;5032243;28;20489;-67
2023/04/19 05:05:35;;;;;;;23.30;15.90;;;;;;;;;;5054004;28;20032;-67
2023/04/19 05:08:01;;;;;;;24.80;16.70;;;;;;;;;;5032167;28;20041;-67
2023/04/19 05:10:27;;;;;;;24.17;16.17;;;;;;;;;;5058468;28;20068;-67
2023/04/19 05:12:52;;;;;;;22.10;15.20;;;;;;;;;;5034461;28;20117;-67
2023/04/19 05:15:18;;;;;;;22.63;15.70;;;;;;;;;;5029764;28;20045;-67
2023/04/19 05:17:49;;;;;;;25.30;16.13;;;;;;;;;;5032062;28;20086;-67
2023/04/19 05:20:15;;;;;;;20.13;14.68;;;;;;;;;;5029444;28;20040;-67
2023/04/19 05:22:41;;;;;;;21.10;15.50;;;;;;;;;;5033468;28;20036;-67
2023/04/19 05:25:09;;;;;;;21.67;14.55;;;;;;;;;;5036747;28;20037;-67
2023/04/19 05:27:35;;;;;;;23.73;16.30;;;;;;;;;;5033217;28;20079;-67
2023/04/19 05:30:03;;;;;;;21.08;13.98;;;;;;;;;;5031585;28;20131;-67
2023/04/19 05:32:29;;;;;;;22.27;15.55;;;;;;;;;;5060662;28;20033;-67
2023/04/19 05:34:57;;;;;;;23.40;15.95;;;;;;;;;;5033018;28;20052;-67
2023/04/19 05:37:25;;;;;;;20.10;15.27;;;;;;;;;;5030589;28;20029;-67
2023/04/19 05:39:51;;;;;;;25.25;15.93;;;;;;;;;;5035503;28;20072;-67
2023/04/19 05:42:17;;;;;;;21.02;14.88;;;;;;;;;;5031784;28;20036;-67
2023/04/19 05:44:43;;;;;;;19.02;14.18;;;;;;;;;;5052631;28;20041;-68
2023/04/19 05:47:10;;;;;;;21.17;15.32;;;;;;;;;;5033185;28;20424;-67
2023/04/19 05:49:59;;;;;;;20.77;14.43;;;;;;;;;;5036815;28;20059;-67
2023/04/19 05:52:29;;;;;;;21.42;15.20;;;;;;;;;;5046120;28;21174;-67
2023/04/19 05:54:57;;;;;;;19.88;14.45;;;;;;;;;;5030535;28;20492;-67
2023/04/19 05:57:23;;;;;;;19.33;14.57;;;;;;;;;;5031898;28;20081;-67
2023/04/19 05:59:49;;;;;;;22.65;14.90;;;;;;;;;;5033437;28;20025;-67
2023/04/19 06:02:18;;;;;;;21.48;14.90;;;;;;;;;;5036225;28;20411;-67
2023/04/19 06:04:44;;;;;;;20.50;15.27;;;;;;;;;;5029330;28;20472;-68
2023/04/19 06:07:10;;;;;;;20.27;15.48;;;;;;;;;;5036810;28;20044;-67
2023/04/19 06:09:38;;;;;;;21.47;15.07;;;;;;;;;;5056569;28;20170;-67
2023/04/19 06:12:05;;;;;;;19.38;14.65;;;;;;;;;;5025392;28;20064;-67
2023/04/19 06:14:31;;;;;;;21.10;13.48;;;;;;;;;;5050385;28;20057;-67
2023/04/19 06:16:57;;;;;;;17.77;13.65;;;;;;;;;;5032505;28;20099;-67
2023/04/19 06:19:22;;;;;;;21.08;14.27;;;;;;;;;;5049377;28;20503;-68
2023/04/19 06:21:48;;;;;;;20.70;14.95;;;;;;;;;;5053011;28;20400;-67
2023/04/19 06:24:13;;;;;;;18.92;14.52;;;;;;;;;;5049033;28;20116;-68
2023/04/19 06:26:39;;;;;;;18.77;13.70;;;;;;;;;;5047924;28;20509;-67
2023/04/19 06:29:05;;;;;;;20.08;14.13;;;;;;;;;;5048171;28;20029;-67
2023/04/19 06:31:32;;;;;;;17.75;14.02;;;;;;;;;;5050757;28;20400;-67
2023/04/19 06:33:57;;;;;;;21.10;13.93;;;;;;;;;;5048733;28;20074;-67
2023/04/19 06:36:23;;;;;;;18.75;14.27;;;;;;;;;;5053306;28;20041;-67
2023/04/19 06:38:49;;;;;;;19.15;13.77;;;;;;;;;;5046891;28;20512;-68
2023/04/19 06:41:14;;;;;;;19.10;14.07;;;;;;;;;;5043735;28;20045;-67
2023/04/19 06:43:41;;;;;;;19.02;13.43;;;;;;;;;;5051553;28;20386;-67
2023/04/19 06:46:08;;;;;;;22.05;13.48;;;;;;;;;;5044803;28;20043;-67
2023/04/19 06:48:34;;;;;;;18.92;13.43;;;;;;;;;;5052734;28;20067;-67
2023/04/19 06:51:00;;;;;;;16.48;13.32;;;;;;;;;;5052300;28;20029;-67
2023/04/19 06:53:26;;;;;;;17.05;11.50;;;;;;;;;;5048600;28;20043;-67
2023/04/19 06:56:00;;;;;;;19.50;14.07;;;;;;;;;;5050494;28;20032;-67
2023/04/19 06:58:27;;;;;;;17.25;13.40;;;;;;;;;;5049392;28;20265;-67
2023/04/19 07:00:53;;;;;;;19.33;13.00;;;;;;;;;;5048320;28;20489;-67
2023/04/19 07:03:19;;;;;;;17.63;12.85;;;;;;;;;;5049889;28;20037;-67
2023/04/19 07:05:45;;;;;;;16.10;13.35;;;;;;;;;;5047688;28;20033;-68
2023/04/19 07:08:10;;;;;;;16.08;11.27;;;;;;;;;;5051592;28;20285;-68
2023/04/19 07:10:36;;;;;;;15.95;12.07;;;;;;;;;;5048951;28;20032;-68
2023/04/19 07:13:02;;;;;;;16.95;12.23;;;;;;;;;;5047079;28;20477;-67
2023/04/19 07:15:27;;;;;;;15.55;12.02;;;;;;;;;;5047539;28;20037;-68
2023/04/19 07:17:53;;;;;;;16.65;11.88;;;;;;;;;;5049952;28;20119;-67
2023/04/19 07:20:19;;;;;;;13.32;11.85;;;;;;;;;;5043866;28;20600;-67
2023/04/19 07:22:44;;;;;;;13.45;11.23;;;;;;;;;;5048895;28;20043;-68
2023/04/19 07:25:10;;;;;;;15.88;12.50;;;;;;;;;;5047747;28;20032;-68
2023/04/19 07:27:35;;;;;;;18.00;12.30;;;;;;;;;;5051513;28;20036;-68
2023/04/19 07:30:01;;;;;;;13.48;10.95;;;;;;;;;;5045605;28;20037;-67
2023/04/19 07:32:27;;;;;;;12.75;9.98;;;;;;;;;;5048519;28;20037;-68
2023/04/19 07:34:52;;;;;;;15.07;10.50;;;;;;;;;;5049650;28;20039;-68
2023/04/19 07:37:18;;;;;;;14.98;10.60;;;;;;;;;;5051111;28;20043;-67
2023/04/19 07:39:44;;;;;;;13.57;9.95;;;;;;;;;;5046650;28;20032;-67
2023/04/19 07:42:09;;;;;;;12.65;10.43;;;;;;;;;;5051034;28;20416;-67
2023/04/19 07:44:35;;;;;;;12.07;10.35;;;;;;;;;;5049147;28;20472;-68
2023/04/19 07:47:02;;;;;;;11.57;10.25;;;;;;;;;;5048502;28;20031;-67
2023/04/19 07:49:32;;;;;;;11.57;10.32;;;;;;;;;;5044641;28;20036;-68
2023/04/19 07:52:00;;;;;;;12.63;10.10;;;;;;;;;;5051792;28;20557;-68
2023/04/19 07:54:25;;;;;;;12.63;10.25;;;;;;;;;;5048505;28;20091;-68
2023/04/19 07:56:51;;;;;;;12.00;10.30;;;;;;;;;;5046214;28;20036;-68
2023/04/19 07:59:16;;;;;;;11.20;9.90;;;;;;;;;;5048238;28;20048;-68
2023/04/19 08:01:42;;;;;;;11.48;10.23;;;;;;;;;;5049636;28;20033;-68
2023/04/19 08:04:08;;;;;;;12.73;10.52;;;;;;;;;;5044005;28;20497;-68
2023/04/19 08:06:33;;;;;;;11.68;9.85;;;;;;;;;;5044856;28;20079;-68
2023/04/19 08:08:59;;;;;;;10.98;9.88;;;;;;;;;;5041683;28;20104;-68
2023/04/19 08:11:24;;;;;;;13.77;10.30;;;;;;;;;;5044559;28;20648;-68
2023/04/19 08:13:50;;;;;;;15.23;10.50;;;;;;;;;;5045257;28;20097;-68
2023/04/19 08:16:15;;;;;;;12.80;11.00;;;;;;;;;;5044058;28;20091;-68
2023/04/19 08:18:41;;;;;;;14.82;11.50;;;;;;;;;;5046809;28;20040;-68
2023/04/19 08:21:07;;;;;;;12.63;10.85;;;;;;;;;;5044982;28;20044;-68
2023/04/19 08:23:32;;;;;;;13.80;9.68;;;;;;;;;;5049053;28;21746;-68
2023/04/19 08:25:58;;;;;;;12.40;10.13;;;;;;;;;;5044430;28;20090;-68
2023/04/19 08:28:24;;;;;;;12.68;9.50;;;;;;;;;;5041931;28;20037;-68
2023/04/19 08:30:49;;;;;;;13.95;10.93;;;;;;;;;;5042833;28;20382;-68
2023/04/19 08:33:15;;;;;;;10.52;9.43;;;;;;;;;;5042452;28;20041;-68
2023/04/19 08:35:41;;;;;;;10.60;8.75;;;;;;;;;;5047858;28;20027;-68
2023/04/19 08:38:07;;;;;;;9.80;8.27;;;;;;;;;;5043557;28;20032;-68
2023/04/19 08:40:32;;;;;;;10.77;9.38;;;;;;;;;;5046377;28;20025;-68
2023/04/19 08:42:59;;;;;;;11.82;8.63;;;;;;;;;;5043509;28;20417;-68
2023/04/19 08:45:27;;;;;;;9.55;8.55;;;;;;;;;;5043569;28;20044;-68
2023/04/19 08:47:53;;;;;;;9.80;8.80;;;;;;;;;;5043642;28;20025;-68
2023/04/19 08:50:20;;;;;;;11.15;8.80;;;;;;;;;;5041047;28;20523;-68
2023/04/19 08:52:46;;;;;;;11.20;9.23;;;;;;;;;;5043303;28;20395;-68
2023/04/19 08:55:11;;;;;;;10.52;9.35;;;;;;;;;;5044328;28;20182;-68
2023/04/19 08:57:37;;;;;;;21.27;14.05;;;;;;;;;;5040890;28;20051;-68
2023/04/19 09:00:08;;;;;;;11.57;9.57;;;;;;;;;;5043176;28;20110;-68
2023/04/19 09:02:48;;;;;;;12.90;9.35;;;;;;;;;;5039605;28;20044;-68
2023/04/19 09:05:16;;;;;;;11.27;9.82;;;;;;;;;;5041212;28;20021;-68
2023/04/19 09:07:43;;;;;;;11.40;9.07;;;;;;;;;;5020231;28;20408;-68
2023/04/19 09:10:14;;;;;;;10.05;8.88;;;;;;;;;;5041039;28;20344;-68
2023/04/19 09:12:40;;;;;;;10.10;9.02;;;;;;;;;;5040853;28;20071;-68
2023/04/19 09:15:08;;;;;;;10.27;9.18;;;;;;;;;;5043204;28;20068;-68
2023/04/19 09:17:37;;;;;;;11.13;9.45;;;;;;;;;;5039875;28;20036;-68
2023/04/19 09:20:04;;;;;;;11.48;8.75;;;;;;;;;;5040216;28;20673;-68
2023/04/19 09:22:31;;;;;;;11.73;8.75;;;;;;;;;;5040042;28;20505;-68
2023/04/19 09:24:58;;;;;;;12.18;9.13;;;;;;;;;;5042176;28;20500;-68
2023/04/19 09:27:35;;;;;;;9.73;8.73;;;;;;;;;;5039628;28;20036;-68
2023/04/19 09:30:02;;;;;;;11.77;9.70;;;;;;;;;;5044004;28;20033;-68
2023/04/19 09:32:43;;;;;;;9.88;8.68;;;;;;;;;;5041946;28;20506;-68
2023/04/19 09:35:08;;;;;;;10.73;8.80;;;;;;;;;;5042196;28;20457;-68
2023/04/19 09:37:34;;;;;;;9.13;8.23;;;;;;;;;;5040199;28;20069;-68
2023/04/19 09:40:03;;;;;;;8.98;8.07;;;;;;;;;;5033952;28;20181;-68
2023/04/19 09:42:48;;;;;;;9.18;8.27;;;;;;;;;;5051755;28;20037;-68
2023/04/19 09:45:14;;;;;;;9.52;8.57;;;;;;;;;;5038114;28;20129;-69
2023/04/19 09:47:40;;;;;;;10.93;8.80;;;;;;;;;;5049036;28;20504;-68
2023/04/19 09:50:07;;;;;;;9.98;8.98;;;;;;;;;;5052319;28;20044;-69
2023/04/19 09:52:34;;;;;;;9.77;8.68;;;;;;;;;;5049014;28;20112;-69
2023/04/19 09:55:01;;;;;;;10.05;8.98;;;;;;;;;;5050174;28;20094;-68
2023/04/19 09:57:26;;;;;;;9.95;8.95;;;;;;;;;;5055790;28;20076;-69
2023/04/19 09:59:52;;;;;;;13.38;8.98;;;;;;;;;;5049140;28;20067;-69
2023/04/19 10:02:19;;;;;;;10.82;9.75;;;;;;;;;;5045271;28;20037;-68
2023/04/19 10:04:45;;;;;;;11.07;9.27;;;;;;;;;;5045448;28;20043;-68
2023/04/19 10:07:10;;;;;;;12.18;9.38;;;;;;;;;;5054585;28;20369;-68
2023/04/19 10:09:37;;;;;;;13.02;9.48;;;;;;;;;;5045927;28;20036;-70
2023/04/19 10:12:05;;;;;;;11.50;9.60;;;;;;;;;;5046932;28;20028;-69
2023/04/19 10:14:34;;;;;;;12.25;9.75;;;;;;;;;;5050720;28;20408;-69
2023/04/19 10:17:01;;;;;;;14.20;9.20;;;;;;;;;;5050871;28;20041;-69
2023/04/19 10:19:27;;;;;;;10.32;8.77;;;;;;;;;;5042386;28;20043;-69
2023/04/19 10:21:55;;;;;;;10.73;8.98;;;;;;;;;;5050496;28;20033;-69
2023/04/19 10:24:22;;;;;;;12.38;10.38;;;;;;;;;;5047029;28;20043;-69
2023/04/19 10:27:07;;;;;;;10.23;9.23;;;;;;;;;;5049736;28;20399;-69
2023/04/19 10:29:52;;;;;;;13.82;9.40;;;;;;;;;;5051820;28;20120;-69
2023/04/19 10:32:17;;;;;;;12.23;10.13;;;;;;;;;;5048261;28;20036;-69
2023/04/19 10:34:45;;;;;;;11.25;9.15;;;;;;;;;;5046734;28;20041;-69
2023/04/19 10:37:12;;;;;;;12.63;8.80;;;;;;;;;;5046351;28;20098;-69
2023/04/19 10:39:42;;;;;;;10.05;8.95;;;;;;;;;;5044941;28;20512;-69
2023/04/19 10:42:09;;;;;;;11.25;9.35;;;;;;;;;;5039932;28;20289;-69
2023/04/19 10:44:34;;;;;;;10.07;8.88;;;;;;;;;;5048038;28;20033;-69
2023/04/19 10:47:00;;;;;;;10.90;9.60;;;;;;;;;;5041642;28;20452;-69
2023/04/19 10:49:28;;;;;;;11.50;8.65;;;;;;;;;;5045605;28;20076;-69
2023/04/19 10:51:54;;;;;;;10.73;9.23;;;;;;;;;;5024613;28;20078;-69
2023/04/19 10:54:31;;;;;;;12.65;9.18;;;;;;;;;;5043265;28;20044;-69
2023/04/19 10:57:01;;;;;;;10.10;9.10;;;;;;;;;;5050431;28;20036;-69
2023/04/19 10:59:34;;;;;;;12.77;9.23;;;;;;;;;;5046735;28;20043;-69
2023/04/19 11:02:23;;;;;;;11.98;9.10;;;;;;;;;;5046715;28;20032;-69
2023/04/19 11:04:49;;;;;;;11.02;9.25;;;;;;;;;;5029908;28;20578;-69
2023/04/19 11:07:17;;;;;;;10.75;9.13;;;;;;;;;;5042477;28;20033;-70
2023/04/19 11:09:46;;;;;;;12.20;8.75;;;;;;;;;;5042260;28;20033;-69
2023/04/19 11:12:18;;;;;;;12.18;8.77;;;;;;;;;;5047796;28;20035;-69
2023/04/19 11:14:47;;;;;;;11.88;8.18;;;;;;;;;;5051884;28;20029;-69
2023/04/19 11:17:15;;;;;;;9.88;8.15;;;;;;;;;;5049033;28;20731;-70
2023/04/19 11:19:51;;;;;;;11.48;8.90;;;;;;;;;;5051957;28;20138;-69
2023/04/19 11:22:17;;;;;;;9.77;8.70;;;;;;;;;;5049599;28;20032;-69
2023/04/19 11:24:48;;;;;;;11.70;9.10;;;;;;;;;;5042545;28;20059;-69
2023/04/19 11:27:14;;;;;;;12.35;9.23;;;;;;;;;;5041473;28;20260;-69
2023/04/19 11:29:40;;;;;;;10.88;9.27;;;;;;;;;;5045716;28;20036;-69
2023/04/19 11:32:06;;;;;;;11.25;8.70;;;;;;;;;;5040543;28;20324;-69
2023/04/19 11:34:38;;;;;;;12.32;9.50;;;;;;;;;;5043350;28;20111;-69
2023/04/19 11:37:04;;;;;;;10.20;9.20;;;;;;;;;;5021150;28;20033;-69
2023/04/19 11:39:29;;;;;;;14.00;9.95;;;;;;;;;;5027217;28;20124;-69
2023/04/19 11:41:55;;;;;;;10.52;9.18;;;;;;;;;;5041603;28;20029;-69
2023/04/19 11:44:20;;;;;;;12.13;9.57;;;;;;;;;;5047362;28;20032;-69
2023/04/19 11:46:58;;;;;;;14.68;10.30;;;;;;;;;;5048536;28;20048;-69
2023/04/19 11:49:33;;;;;;;14.60;10.90;;;;;;;;;;5035259;28;20048;-69
2023/04/19 11:52:00;;;;;;;14.30;10.40;;;;;;;;;;5045560;28;20098;-69
2023/04/19 11:54:26;;;;;;;12.05;10.02;;;;;;;;;;5049847;28;20047;-69
2023/04/19 11:57:04;;;;;;;12.85;10.65;;;;;;;;;;5051091;28;20235;-69
2023/04/19 11:59:32;;;;;;;12.63;10.18;;;;;;;;;;5049549;28;20706;-69
2023/04/19 12:02:04;;;;;;;13.63;11.15;;;;;;;;;;5049142;28;20040;-69
2023/04/19 12:04:30;;;;;;;12.98;10.50;;;;;;;;;;5047004;28;20044;-68
2023/04/19 12:06:58;;;;;;;13.65;11.48;;;;;;;;;;5046962;28;20515;-69
2023/04/19 12:09:24;;;;;;;17.60;11.93;;;;;;;;;;5051176;28;20039;-69
2023/04/19 12:11:50;;;;;;;14.07;12.13;;;;;;;;;;5045299;28;20389;-69
2023/04/19 12:14:18;;;;;;;17.98;13.70;;;;;;;;;;5045541;28;20193;-69
2023/04/19 12:16:44;;;;;;;18.00;12.82;;;;;;;;;;5047662;28;20052;-68
2023/04/19 12:19:21;;;;;;;21.83;16.23;;;;;;;;;;5046901;28;20090;-69
2023/04/19 12:21:47;;;;;;;28.15;18.23;;;;;;;;;;5050101;28;20040;-69
2023/04/19 12:24:16;;;;;;;26.98;16.70;;;;;;;;;;5043357;28;20385;-68
2023/04/19 12:26:55;;;;;;;23.88;15.38;;;;;;;;;;5009583;28;20037;-68
2023/04/19 12:29:21;;;;;;;57.00;28.40;;;;;;;;;;5049041;28;20036;-69
2023/04/19 12:31:47;;;;;;;26.13;18.15;;;;;;;;;;5045658;28;20093;-69
2023/04/19 12:34:12;;;;;;;22.70;17.83;;;;;;;;;;5041367;28;20488;-69
2023/04/19 12:36:38;;;;;;;25.95;17.70;;;;;;;;;;5046678;28;20723;-68
2023/04/19 12:39:03;;;;;;;21.88;16.55;;;;;;;;;;5042572;28;20025;-68
2023/04/19 12:41:29;;;;;;;26.17;16.90;;;;;;;;;;5045888;28;20501;-68
2023/04/19 12:43:55;;;;;;;24.75;18.48;;;;;;;;;;5050867;28;20059;-68
2023/04/19 12:46:20;;;;;;;22.67;17.02;;;;;;;;;;5048659;28;20040;-68
2023/04/19 12:48:46;;;;;;;27.48;18.95;;;;;;;;;;5045994;28;20116;-69
2023/04/19 12:51:11;;;;;;;25.02;17.35;;;;;;;;;;5046609;28;20098;-69
2023/04/19 12:53:37;;;;;;;24.38;18.23;;;;;;;;;;5046181;28;20197;-68
2023/04/19 12:56:02;;;;;;;26.75;19.13;;;;;;;;;;5037865;28;20047;-69
2023/04/19 12:58:28;;;;;;;24.08;16.73;;;;;;;;;;5038494;28;20042;-69
2023/04/19 13:00:53;;;;;;;27.08;19.25;;;;;;;;;;5038914;28;20120;-69
2023/04/19 13:03:19;;;;;;;27.33;17.67;;;;;;;;;;5041525;28;20045;-69
2023/04/19 13:05:44;;;;;;;26.25;19.20;;;;;;;;;;5041321;28;20188;-68
2023/04/19 13:08:10;;;;;;;24.77;18.50;;;;;;;;;;5040533;28;20182;-69
2023/04/19 13:10:35;;;;;;;27.73;19.10;;;;;;;;;;5044330;28;20033;-69
2023/04/19 13:13:01;;;;;;;31.95;19.45;;;;;;;;;;5036299;28;20115;-69
2023/04/19 13:15:28;;;;;;;27.65;17.70;;;;;;;;;;5040467;28;20530;-69
2023/04/19 13:17:54;;;;;;;27.73;18.02;;;;;;;;;;5044780;28;20033;-69
2023/04/19 13:20:19;;;;;;;31.50;18.50;;;;;;;;;;5047277;28;20411;-69
2023/04/19 13:22:45;;;;;;;26.15;18.15;;;;;;;;;;5046496;28;20082;-68
2023/04/19 13:25:11;;;;;;;25.77;17.70;;;;;;;;;;5043387;28;20033;-68
2023/04/19 13:27:36;;;;;;;25.67;18.45;;;;;;;;;;5045361;28;20128;-68
2023/04/19 13:30:02;;;;;;;23.42;17.42;;;;;;;;;;5045256;28;20073;-68
2023/04/19 13:32:28;;;;;;;26.27;16.98;;;;;;;;;;5047103;28;20481;-68
2023/04/19 13:34:54;;;;;;;26.95;17.67;;;;;;;;;;5047140;28;20045;-68
2023/04/19 13:37:19;;;;;;;30.30;17.88;;;;;;;;;;5042561;28;20428;-69
2023/04/19 13:39:45;;;;;;;18.63;13.55;;;;;;;;;;5048131;28;20037;-68
2023/04/19 13:42:11;;;;;;;25.42;18.30;;;;;;;;;;5049278;28;20072;-68
2023/04/19 13:44:36;;;;;;;25.85;17.63;;;;;;;;;;5046660;28;20075;-68
2023/04/19 13:47:02;;;;;;;26.42;17.63;;;;;;;;;;5046975;28;20515;-68
2023/04/19 13:49:28;;;;;;;22.35;16.02;;;;;;;;;;5048134;28;20044;-68
2023/04/19 13:51:53;;;;;;;25.75;16.65;;;;;;;;;;5048784;28;20382;-68
2023/04/19 13:54:19;;;;;;;22.85;14.70;;;;;;;;;;5042246;28;20037;-68
2023/04/19 13:56:45;;;;;;;23.02;14.27;;;;;;;;;;5039570;28;20067;-68
2023/04/19 13:59:11;;;;;;;21.17;15.00;;;;;;;;;;5046133;28;20060;-71
2023/04/19 14:01:37;;;;;;;19.30;14.48;;;;;;;;;;5047495;28;20531;-68
2023/04/19 14:04:03;;;;;;;21.85;15.60;;;;;;;;;;5045951;28;20033;-68
2023/04/19 14:06:28;;;;;;;24.20;16.13;;;;;;;;;;5042305;28;20384;-68
2023/04/19 14:08:54;;;;;;;22.23;15.25;;;;;;;;;;5042804;28;20036;-68
2023/04/19 14:11:20;;;;;;;18.77;15.35;;;;;;;;;;5042436;28;20045;-69
2023/04/19 14:13:47;;;;;;;21.60;14.13;;;;;;;;;;5048794;28;20636;-69
2023/04/19 14:16:13;;;;;;;30.38;25.23;;;;;;;;;;5044506;28;20037;-69
2023/04/19 14:18:39;;;;;;;19.58;14.85;;;;;;;;;;5043889;28;20043;-68
2023/04/19 14:21:05;;;;;;;25.95;14.60;;;;;;;;;;5043137;28;20485;-69